Time;durP1;ratioP1;P1;durP2;ratioP2;P2;SDS_P1;SDS_P2;PMS_P1;PMS_P2;Temp;Humidity;BMP_temperature;BMP_pressure;BME280_temperature;BME280_humidity;BME280_pressure;Samples;Min_cycle;Max_cycle;Signal;HPM_P1;HPM_P2
2021/07/30 00:02:22;;;;;;;;;10.50;9.75;;;;;25.18;43.28;100275.50;5037981;28;48367;-83
2021/07/30 00:04:50;;;;;;;;;10.00;9.00;;;;;25.21;42.96;100283.34;5048773;28;45366;-84
2021/07/30 00:07:16;;;;;;;;;7.50;6.25;;;;;25.20;43.73;100282.47;5021536;28;45399;-83
2021/07/30 00:09:41;;;;;;;;;8.50;8.50;;;;;25.19;43.74;100271.88;5038361;28;45455;-83
2021/07/30 00:12:07;;;;;;;;;15.75;13.50;;;;;25.17;43.28;100260.41;5020867;28;67138;-83
2021/07/30 00:14:45;;;;;;;;;11.00;9.50;;;;;25.14;43.77;100260.59;5021248;28;52852;-84
2021/07/30 00:17:11;;;;;;;;;9.00;9.00;;;;;25.16;43.96;100264.91;5038114;28;45266;-82
2021/07/30 00:19:36;;;;;;;;;32.25;29.25;;;;;25.16;43.47;100264.91;5021879;28;45405;-82
2021/07/30 00:22:01;;;;;;;;;15.00;12.00;;;;;25.15;43.33;100263.19;5040281;28;57407;-82
2021/07/30 00:24:27;;;;;;;;;16.50;14.50;;;;;25.20;43.79;100279.81;5024929;28;45463;-82
2021/07/30 00:26:52;;;;;;;;;26.00;22.25;;;;;25.22;43.71;100272.56;5024651;28;49556;-82
2021/07/30 00:29:18;;;;;;;;;17.00;14.75;;;;;25.18;44.11;100268.34;5058316;28;46463;-82
2021/07/30 00:32:20;;;;;;;;;;;;;;;;;;;;;
2021/07/30 00:34:45;;;;;;;;;12.00;11.00;;;;;25.12;43.37;100249.16;5056019;28;71995;-82
2021/07/30 00:37:11;;;;;;;;;13.75;11.75;;;;;25.17;43.91;100266.63;5043016;28;45225;-82
2021/07/30 00:39:36;;;;;;;;;12.25;12.00;;;;;25.09;44.40;100252.84;5040947;28;54522;-82
2021/07/30 00:42:02;;;;;;;;;16.00;15.75;;;;;25.12;44.36;100251.84;5041088;28;58409;-82
2021/07/30 00:44:29;;;;;;;;;53.50;45.75;;;;;25.15;44.00;100257.00;5040740;28;45521;-82
2021/07/30 00:46:55;;;;;;;;;48.75;40.25;;;;;25.13;44.33;100248.22;5024842;28;45371;-82
2021/07/30 00:49:20;;;;;;;;;26.50;24.25;;;;;25.10;43.79;100249.22;5024591;28;45654;-81
2021/07/30 00:51:46;;;;;;;;;18.75;18.75;;;;;25.04;44.08;100249.63;5041265;28;46419;-81
2021/07/30 00:54:12;;;;;;;;;21.50;19.25;;;;;24.99;44.14;100246.31;5024477;28;45688;-83
2021/07/30 00:56:37;;;;;;;;;16.25;15.50;;;;;24.98;43.98;100241.91;5058296;28;45279;-82
2021/07/30 00:59:03;;;;;;;;;17.75;14.75;;;;;24.97;44.38;100237.53;5024100;28;45328;-82
2021/07/30 01:01:29;;;;;;;;;16.75;15.25;;;;;25.00;44.50;100242.69;5024186;28;47019;-83
2021/07/30 01:03:54;;;;;;;;;13.75;12.50;;;;;25.03;44.09;100243.41;5041004;28;45189;-82
2021/07/30 01:06:19;;;;;;;;;13.25;12.00;;;;;25.02;44.19;100232.75;5024565;28;45274;-83
2021/07/30 01:08:47;;;;;;;;;13.50;13.25;;;;;25.01;44.39;100223.91;5042329;28;45408;-83
2021/07/30 01:11:13;;;;;;;;;12.00;12.00;;;;;25.06;44.65;100229.88;5040810;28;46192;-83
2021/07/30 01:13:38;;;;;;;;;16.00;13.25;;;;;25.08;44.01;100235.97;5024210;28;45332;-83
2021/07/30 01:16:04;;;;;;;;;11.50;11.50;;;;;25.08;44.56;100238.66;5041842;28;45331;-83
2021/07/30 01:18:30;;;;;;;;;14.50;13.25;;;;;25.02;44.27;100222.09;5024283;28;45462;-82
2021/07/30 01:21:26;;;;;;;;;15.00;13.75;;;;;25.08;44.14;100243.13;5057492;28;48344;-82
2021/07/30 01:23:55;;;;;;;;;13.00;13.00;;;;;25.04;44.44;100231.78;5040735;28;45317;-82
2021/07/30 01:26:20;;;;;;;;;10.25;10.25;;;;;25.06;44.23;100226.34;5040872;28;45272;-83
2021/07/30 01:28:46;;;;;;;;;14.00;13.00;;;;;25.05;44.12;100225.47;5040833;28;45579;-83
2021/07/30 01:31:11;;;;;;;;;11.00;10.00;;;;;25.06;44.37;100218.34;5020469;28;47816;-83
2021/07/30 01:33:36;;;;;;;;;11.25;10.25;;;;;25.01;44.62;100215.03;5056589;28;45801;-83
2021/07/30 01:36:02;;;;;;;;;12.75;11.00;;;;;25.09;44.56;100216.31;5040929;28;45307;-83
2021/07/30 01:38:27;;;;;;;;;12.50;11.25;;;;;25.13;44.48;100218.84;5057262;28;45491;-83
2021/07/30 01:40:53;;;;;;;;;11.75;10.75;;;;;25.07;44.04;100209.38;5041914;28;45397;-83
2021/07/30 01:43:18;;;;;;;;;10.25;9.50;;;;;25.09;43.93;100211.00;5040374;28;45431;-83
2021/07/30 01:45:44;;;;;;;;;11.50;10.25;;;;;25.04;44.13;100209.56;5041588;28;45342;-83
2021/07/30 01:48:09;;;;;;;;;16.50;12.75;;;;;25.06;44.39;100210.31;5041994;28;45609;-83
2021/07/30 01:50:34;;;;;;;;;12.00;11.25;;;;;25.10;44.71;100214.50;5023750;28;47002;-83
2021/07/30 01:53:00;;;;;;;;;12.75;11.50;;;;;25.10;44.36;100201.16;5041738;28;44901;-82
2021/07/30 01:55:25;;;;;;;;;13.75;12.75;;;;;25.16;44.64;100215.97;5027388;28;45769;-83
2021/07/30 01:57:51;;;;;;;;;11.75;10.50;;;;;25.16;44.19;100222.16;5041585;28;45399;-84
2021/07/30 02:00:17;;;;;;;;;11.00;10.00;;;;;25.15;44.26;100217.78;5057002;28;45391;-83
2021/07/30 02:02:42;;;;;;;;;14.25;12.25;;;;;25.16;44.34;100218.63;5023059;28;45445;-83
2021/07/30 02:05:08;;;;;;;;;17.00;12.25;;;;;25.11;44.07;100208.25;5048112;28;45928;-82
2021/07/30 02:07:37;;;;;;;;;15.50;12.25;;;;;25.14;44.00;100215.22;5040163;28;45660;-83
2021/07/30 02:10:04;;;;;;;;;15.25;13.25;;;;;25.10;43.93;100209.16;5056592;28;45641;-83
2021/07/30 02:12:30;;;;;;;;;12.75;12.75;;;;;25.06;43.98;100207.66;5036620;28;45420;-82
2021/07/30 02:14:55;;;;;;;;;14.00;13.00;;;;;25.00;44.45;100199.97;5033284;28;45472;-82
2021/07/30 02:17:21;;;;;;;;;14.25;11.75;;;;;25.01;44.13;100201.69;5026292;28;48748;-82
2021/07/30 02:19:46;;;;;;;;;14.25;12.00;;;;;24.96;44.36;100199.28;5022930;28;58120;-82
2021/07/30 02:22:11;;;;;;;;;13.25;12.25;;;;;25.00;44.64;100197.28;5040938;28;50697;-82
2021/07/30 02:24:37;;;;;;;;;12.25;12.25;;;;;24.92;44.43;100189.72;5023210;28;45277;-82
2021/07/30 02:27:02;;;;;;;;;15.50;12.00;;;;;24.96;44.55;100183.28;5039809;28;45623;-83
2021/07/30 02:29:28;;;;;;;;;13.00;13.00;;;;;24.98;44.57;100183.19;5039449;28;47135;-82
2021/07/30 02:31:53;;;;;;;;;12.00;11.75;;;;;25.00;44.46;100195.47;5056543;28;45290;-82
2021/07/30 02:34:19;;;;;;;;;13.00;13.00;;;;;24.90;44.37;100180.09;5039732;28;45165;-82
2021/07/30 02:36:44;;;;;;;;;13.25;12.25;;;;;24.92;44.33;100186.19;5039431;28;50189;-82
2021/07/30 02:39:09;;;;;;;;;14.25;12.50;;;;;24.90;44.45;100188.13;5039826;28;45177;-83
2021/07/30 02:41:35;;;;;;;;;11.25;11.00;;;;;24.86;44.12;100192.78;5039415;28;45251;-83
2021/07/30 02:44:05;;;;;;;;;12.00;11.00;;;;;24.81;44.67;100182.34;5055171;28;47261;-82
2021/07/30 02:46:31;;;;;;;;;9.25;9.25;;;;;24.77;44.50;100180.84;5040644;28;45462;-82
2021/07/30 02:48:56;;;;;;;;;14.50;12.25;;;;;24.75;44.58;100181.84;5039594;28;46069;-82
2021/07/30 02:51:22;;;;;;;;;15.00;14.25;;;;;24.70;45.09;100174.13;5039486;28;45404;-82
2021/07/30 02:53:47;;;;;;;;;13.75;12.00;;;;;24.70;45.14;100173.28;5038903;28;52729;-82
2021/07/30 02:56:13;;;;;;;;;13.50;12.00;;;;;24.75;44.43;100185.38;5019513;28;45387;-83
2021/07/30 02:58:38;;;;;;;;;14.00;12.25;;;;;24.76;44.96;100186.28;5015923;28;47717;-83
2021/07/30 03:01:04;;;;;;;;;12.50;12.00;;;;;24.72;44.79;100172.22;5038886;28;45243;-82
2021/07/30 03:03:29;;;;;;;;;18.25;16.50;;;;;24.71;43.99;100164.31;5022564;28;45228;-83
2021/07/30 03:05:57;;;;;;;;;14.50;13.50;;;;;24.77;44.46;100171.97;5038963;28;45427;-82
2021/07/30 03:08:24;;;;;;;;;11.75;11.75;;;;;24.75;44.45;100164.03;5056084;28;46017;-82
2021/07/30 03:10:50;;;;;;;;;15.25;13.00;;;;;24.69;44.81;100158.22;5055482;28;45611;-82
2021/07/30 03:13:15;;;;;;;;;16.25;13.75;;;;;24.77;45.25;100171.97;5039495;28;45352;-82
2021/07/30 03:15:40;;;;;;;;;14.00;12.25;;;;;24.81;44.77;100168.16;5039983;28;45299;-82
2021/07/30 03:18:06;;;;;;;;;14.00;12.50;;;;;24.74;45.29;100154.31;5039005;28;46144;-82
2021/07/30 03:20:31;;;;;;;;;13.50;13.25;;;;;24.83;45.23;100160.06;5022243;28;45385;-82
2021/07/30 03:22:57;;;;;;;;;13.00;13.00;;;;;24.86;44.51;100152.75;5022455;28;45525;-83
2021/07/30 03:25:22;;;;;;;;;15.00;12.00;;;;;24.85;44.76;100152.81;5055589;28;45317;-82
2021/07/30 03:27:50;;;;;;;;;13.00;13.00;;;;;24.81;44.83;100145.00;5005940;28;48363;-82
2021/07/30 03:30:16;;;;;;;;;13.25;13.00;;;;;24.84;44.48;100157.28;5022179;28;45312;-83
2021/07/30 03:32:42;;;;;;;;;13.50;13.00;;;;;24.87;44.99;100156.28;5022286;28;45247;-82
2021/07/30 03:35:07;;;;;;;;;15.50;12.00;;;;;24.84;44.82;100154.63;5038886;28;45562;-82
2021/07/30 03:37:33;;;;;;;;;12.00;10.00;;;;;24.90;44.67;100164.09;5038663;28;46826;-82
2021/07/30 03:39:58;;;;;;;;;11.00;10.00;;;;;24.83;44.14;100152.91;5055304;28;45273;-83
2021/07/30 03:42:24;;;;;;;;;16.00;12.00;;;;;24.78;44.58;100142.50;5040144;28;45754;-83
2021/07/30 03:44:49;;;;;;;;;13.00;12.50;;;;;24.80;44.74;100137.09;5021594;28;45478;-83
2021/07/30 03:47:14;;;;;;;;;12.25;12.25;;;;;24.77;44.53;100151.47;5039426;28;56347;-81
2021/07/30 03:49:40;;;;;;;;;14.25;13.00;;;;;24.77;44.65;100151.47;5055530;28;46124;-82
2021/07/30 03:52:05;;;;;;;;;14.25;13.25;;;;;24.73;45.17;100147.25;5039105;28;45278;-82
2021/07/30 03:54:31;;;;;;;;;16.25;12.50;;;;;24.73;44.79;100144.59;5038380;28;45485;-82
2021/07/30 03:56:56;;;;;;;;;16.25;15.00;;;;;24.75;44.89;100152.50;5023801;28;60971;-82
2021/07/30 03:59:22;;;;;;;;;12.25;11.00;;;;;24.75;44.84;100140.00;5041471;28;55123;-82
2021/07/30 04:01:47;;;;;;;;;13.75;13.75;;;;;24.76;44.92;100148.91;5025444;28;45478;-83
2021/07/30 04:04:16;;;;;;;;;10.00;9.50;;;;;24.76;45.20;100149.75;5041704;28;45481;-82
2021/07/30 04:06:43;;;;;;;;;11.75;10.25;;;;;24.83;45.22;100152.91;5025210;28;46156;-82
2021/07/30 04:09:12;;;;;;;;;14.00;11.75;;;;;24.83;44.81;100154.72;5042855;28;45426;-82
2021/07/30 04:11:38;;;;;;;;;11.75;11.25;;;;;24.78;44.68;100142.50;5042385;28;45291;-82
2021/07/30 04:14:05;;;;;;;;;10.25;10.25;;;;;24.84;44.63;100156.44;5042816;28;45246;-82
2021/07/30 04:16:31;;;;;;;;;11.00;11.00;;;;;24.77;44.40;100151.47;5043001;28;45414;-82
2021/07/30 04:18:56;;;;;;;;;13.50;12.75;;;;;24.74;45.35;100145.44;5025020;28;45275;-81
2021/07/30 04:21:22;;;;;;;;;14.00;11.00;;;;;24.78;44.46;100157.66;5024990;28;48061;-82
2021/07/30 04:23:47;;;;;;;;;10.25;10.25;;;;;24.73;44.62;100141.91;5041185;28;56745;-82
2021/07/30 04:26:12;;;;;;;;;12.00;12.00;;;;;24.84;45.04;100153.75;5024556;28;56946;-82
2021/07/30 04:28:38;;;;;;;;;15.00;14.00;;;;;24.73;44.62;100141.91;5024692;28;45390;-82
2021/07/30 04:31:04;;;;;;;;;14.50;12.00;;;;;24.75;45.00;100148.00;5041549;28;45336;-82
2021/07/30 04:33:46;;;;;;;;;12.00;10.25;;;;;24.64;44.46;100129.13;5041777;28;45356;-82
2021/07/30 04:36:17;;;;;;;;;12.75;11.75;;;;;24.75;44.45;100158.69;5056910;28;46205;-83
2021/07/30 04:38:43;;;;;;;;;12.25;10.25;;;;;24.69;44.24;100151.06;5041705;28;45308;-83
2021/07/30 04:41:08;;;;;;;;;12.25;10.00;;;;;24.71;44.49;100159.84;5041400;28;45249;-83
2021/07/30 04:43:34;;;;;;;;;10.25;9.50;;;;;24.61;44.46;100144.47;5024791;28;45510;-83
2021/07/30 04:45:59;;;;;;;;;11.50;11.50;;;;;24.60;44.01;100148.94;5041090;28;45938;-83
2021/07/30 04:48:25;;;;;;;;;9.25;9.00;;;;;24.65;44.47;100157.50;5058193;28;45324;-83
2021/07/30 04:50:50;;;;;;;;;11.00;9.25;;;;;24.61;44.03;100150.66;5041568;28;45319;-82
2021/07/30 04:53:15;;;;;;;;;12.25;11.00;;;;;24.60;44.83;100143.59;5058162;28;46608;-82
2021/07/30 04:55:41;;;;;;;;;10.75;10.00;;;;;24.61;44.48;100147.13;5041817;28;56043;-82
2021/07/30 04:58:06;;;;;;;;;10.00;8.00;;;;;24.56;44.08;100147.38;5007562;28;62066;-82
2021/07/30 05:00:32;;;;;;;;;12.00;8.75;;;;;24.65;44.13;100157.50;5040987;28;45298;-81
2021/07/30 05:02:57;;;;;;;;;10.00;7.50;;;;;24.63;43.86;100143.41;5041042;28;51601;-81
2021/07/30 05:05:23;;;;;;;;;10.75;10.75;;;;;24.58;44.78;100137.47;5029981;28;47108;-82
2021/07/30 05:07:48;;;;;;;;;13.00;9.75;;;;;24.54;44.70;100138.63;5039821;28;45370;-82
2021/07/30 05:10:13;;;;;;;;;9.75;9.75;;;;;24.51;43.99;100139.66;5040835;28;45345;-82
2021/07/30 05:12:39;;;;;;;;;8.50;7.00;;;;;24.52;45.04;100132.50;5041184;28;45675;-82
2021/07/30 05:15:05;;;;;;;;;8.00;8.00;;;;;24.58;44.35;100139.28;5024124;28;47319;-81
2021/07/30 05:17:30;;;;;;;;;8.25;8.00;;;;;24.56;44.52;100142.03;5024097;28;45411;-82
2021/07/30 05:19:56;;;;;;;;;9.00;8.75;;;;;24.64;44.99;100150.47;5024344;28;45445;-82
2021/07/30 05:22:21;;;;;;;;;11.00;10.00;;;;;24.66;44.49;100159.22;5041362;28;45412;-79
2021/07/30 05:24:47;;;;;;;;;9.50;9.50;;;;;24.62;45.29;100147.03;5040655;28;45855;-81
2021/07/30 05:27:12;;;;;;;;;10.25;9.50;;;;;24.66;45.30;100139.69;5044078;28;45434;-89
2021/07/30 05:29:38;;;;;;;;;17.00;15.25;;;;;24.77;45.80;100159.47;5024449;28;45242;-85
2021/07/30 05:32:03;;;;;;;;;12.00;9.25;;;;;24.82;45.55;100159.19;5044480;28;45230;-78
2021/07/30 05:34:30;;;;;;;;;15.50;15.50;;;;;24.88;46.72;100153.50;5041708;28;45412;-75
2021/07/30 05:36:56;;;;;;;;;14.50;14.50;;;;;24.97;46.64;100144.09;5042103;28;45288;-76
2021/07/30 05:39:21;;;;;;;;;43.00;34.75;;;;;25.06;44.83;100140.91;5040528;28;45493;-78
2021/07/30 05:41:46;;;;;;;;;32.50;29.25;;;;;25.13;44.56;100149.41;5040614;28;46147;-78
2021/07/30 05:44:13;;;;;;;;;33.25;30.25;;;;;25.08;45.14;100133.66;5039635;28;62580;-77
2021/07/30 05:46:38;;;;;;;;;25.25;22.75;;;;;25.25;45.80;100157.50;5023968;28;45983;-78
2021/07/30 05:49:04;;;;;;;;;19.00;19.00;;;;;25.31;44.98;100150.94;5040372;28;45499;-83
2021/07/30 05:51:29;;;;;;;;;15.00;12.25;;;;;25.39;44.58;100154.00;5040419;28;45300;-79
2021/07/30 05:53:55;;;;;;;;;11.00;10.75;;;;;25.32;43.79;100131.28;5023713;28;46911;-81
2021/07/30 05:56:20;;;;;;;;;11.00;10.00;;;;;25.38;44.25;100146.09;5040113;28;63680;-82
2021/07/30 05:58:45;;;;;;;;;8.00;7.00;;;;;25.30;42.80;100138.56;5040209;28;45303;-78
2021/07/30 06:01:14;;;;;;;;;7.75;7.00;;;;;25.18;42.49;100131.28;5039906;28;52116;-78
2021/07/30 06:03:40;;;;;;;;;10.00;7.00;;;;;25.22;42.71;100148.84;5036211;28;57454;-77
2021/07/30 06:06:05;;;;;;;;;9.00;8.50;;;;;25.18;43.79;100140.13;5041504;28;45348;-78
2021/07/30 06:08:31;;;;;;;;;8.25;7.00;;;;;25.22;43.06;100140.84;5040297;28;45244;-78
2021/07/30 06:10:56;;;;;;;;;7.00;7.00;;;;;25.23;43.33;100143.41;5042826;28;45525;-77
2021/07/30 06:13:22;;;;;;;;;9.25;7.00;;;;;25.22;43.40;100133.69;5056575;28;49740;-79
2021/07/30 06:15:47;;;;;;;;;8.00;7.00;;;;;25.23;43.25;100139.88;5039687;28;45256;-79
2021/07/30 06:18:12;;;;;;;;;9.25;6.75;;;;;25.18;43.63;100134.78;5025449;28;45747;-80
2021/07/30 06:20:38;;;;;;;;;5.50;5.50;;;;;25.17;43.53;100135.75;5041147;28;45472;-79
2021/07/30 06:23:03;;;;;;;;;6.75;6.00;;;;;25.14;43.04;100124.41;5041775;28;45403;-82
2021/07/30 06:25:29;;;;;;;;;7.00;6.50;;;;;25.07;42.81;100122.09;5041085;28;45318;-80
2021/07/30 06:27:54;;;;;;;;;8.25;6.25;;;;;25.11;43.04;100128.13;5023387;28;45411;-80
2021/07/30 06:30:20;;;;;;;;;7.25;6.00;;;;;25.12;43.14;100129.00;5039762;28;45506;-80
2021/07/30 06:32:45;;;;;;;;;9.75;6.75;;;;;25.04;43.01;100124.97;5055605;28;65763;-79
2021/07/30 06:35:15;;;;;;;;;6.50;6.50;;;;;25.05;42.62;100126.69;5050457;28;46187;-82
2021/07/30 06:37:41;;;;;;;;;6.00;6.00;;;;;25.04;42.83;100132.13;5037056;28;45388;-80
2021/07/30 06:40:07;;;;;;;;;5.75;5.75;;;;;25.01;43.15;100126.91;5037670;28;45662;-80
2021/07/30 06:42:33;;;;;;;;;5.25;5.25;;;;;25.00;43.02;100118.06;5022507;28;47618;-81
2021/07/30 06:44:59;;;;;;;;;5.50;5.50;;;;;25.05;42.85;100129.34;5050218;28;45551;-78
2021/07/30 06:47:25;;;;;;;;;6.00;5.00;;;;;25.08;43.50;100118.47;5040431;28;45339;-81
2021/07/30 06:49:50;;;;;;;;;8.00;6.75;;;;;25.07;43.65;100113.25;5037251;28;45467;-76
2021/07/30 06:52:16;;;;;;;;;5.00;5.00;;;;;25.01;43.22;100108.22;5032866;28;46246;-78
2021/07/30 06:54:41;;;;;;;;;6.25;6.25;;;;;25.05;42.55;100118.69;5037625;28;45672;-78
2021/07/30 06:57:07;;;;;;;;;5.25;4.75;;;;;25.04;43.25;100113.44;5040704;28;45465;-80
2021/07/30 06:59:33;;;;;;;;;5.00;5.00;;;;;25.05;42.91;100121.34;5037686;28;45517;-79
2021/07/30 07:02:00;;;;;;;;;8.00;7.00;;;;;25.05;42.96;100123.16;5048833;28;45465;-79
2021/07/30 07:04:26;;;;;;;;;5.00;5.00;;;;;25.07;42.83;100116.75;5021673;28;45253;-80
2021/07/30 07:06:51;;;;;;;;;6.00;5.00;;;;;24.99;43.08;100113.66;5011993;28;50201;-80
2021/07/30 07:09:17;;;;;;;;;9.25;6.25;;;;;24.95;42.69;100120.16;5005227;28;45427;-80
2021/07/30 07:11:43;;;;;;;;;5.00;4.00;;;;;24.93;42.71;100122.03;4990933;28;47317;-84
2021/07/30 07:14:08;;;;;;;;;5.00;4.75;;;;;24.92;43.36;100132.81;5021293;28;45299;-79
2021/07/30 07:16:33;;;;;;;;;4.00;4.00;;;;;24.87;43.16;100122.44;5035814;28;45464;-78
2021/07/30 07:18:59;;;;;;;;;5.00;4.00;;;;;24.86;43.75;100127.84;5004520;28;46219;-79
2021/07/30 07:21:24;;;;;;;;;6.00;5.00;;;;;24.84;43.33;100114.59;5020449;28;64156;-80
2021/07/30 07:23:51;;;;;;;;;6.25;6.25;;;;;24.86;43.96;100122.53;5013572;28;58195;-80
2021/07/30 07:26:17;;;;;;;;;8.75;5.00;;;;;24.86;43.74;100118.03;5047465;28;45590;-80
2021/07/30 07:28:45;;;;;;;;;7.50;6.00;;;;;24.78;43.58;100102.47;5037898;28;45305;-79
2021/07/30 07:31:13;;;;;;;;;5.50;5.50;;;;;24.86;43.79;100111.84;5018026;28;46240;-82
2021/07/30 07:33:39;;;;;;;;;5.50;4.50;;;;;24.86;43.72;100112.69;5018576;28;46421;-81
2021/07/30 07:36:04;;;;;;;;;3.25;3.25;;;;;24.86;43.91;100110.03;5031767;28;45614;-81
2021/07/30 07:38:30;;;;;;;;;9.75;6.25;;;;;24.79;43.81;100117.53;5024887;28;45640;-82
2021/07/30 07:40:56;;;;;;;;;5.00;4.50;;;;;24.77;43.76;100124.78;5038075;28;46984;-82
2021/07/30 07:43:21;;;;;;;;;8.75;7.00;;;;;24.76;44.15;100114.22;5014169;28;67558;-81
2021/07/30 07:45:46;;;;;;;;;6.00;6.00;;;;;24.74;44.19;100114.28;5031495;28;45685;-82
2021/07/30 07:48:12;;;;;;;;;8.25;6.75;;;;;24.75;44.28;100115.13;5008553;28;45296;-81
2021/07/30 07:50:37;;;;;;;;;6.00;4.00;;;;;24.75;44.20;100109.78;5054637;28;45303;-81
2021/07/30 07:53:14;;;;;;;;;6.00;6.00;;;;;24.69;44.61;100100.34;4990049;28;45504;-81
2021/07/30 07:55:40;;;;;;;;;7.75;6.50;;;;;24.75;44.75;100107.97;5021794;28;45350;-82
2021/07/30 07:58:05;;;;;;;;;6.00;6.00;;;;;24.79;44.88;100103.34;5021599;28;45450;-82
2021/07/30 08:00:30;;;;;;;;;5.00;5.00;;;;;24.80;44.54;100097.03;5034671;28;54810;-83
2021/07/30 08:02:56;;;;;;;;;6.00;5.25;;;;;24.85;44.89;100104.75;5021242;28;45480;-82
2021/07/30 08:05:21;;;;;;;;;7.00;5.00;;;;;24.86;44.98;100101.16;5028184;28;50845;-82
2021/07/30 08:07:47;;;;;;;;;5.75;5.50;;;;;24.87;45.26;100089.53;5020460;28;45454;-81
2021/07/30 08:10:34;;;;;;;;;;;;;;;;;;;;;
2021/07/30 08:13:00;;;;;;;;;5.50;5.25;;;;;24.76;44.96;100076.84;5032212;28;74118;-81
2021/07/30 08:15:31;;;;;;;;;5.75;5.75;;;;;24.81;44.95;100086.28;5034391;28;45782;-81
2021/07/30 08:18:13;;;;;;;;;5.00;5.00;;;;;24.85;44.89;100081.63;5037565;28;45512;-82
2021/07/30 08:20:39;;;;;;;;;6.00;5.50;;;;;24.86;45.24;100085.16;5036061;28;45576;-82
2021/07/30 08:23:04;;;;;;;;;8.00;6.75;;;;;24.86;44.85;100082.47;5037528;28;45363;-79
2021/07/30 08:25:32;;;;;;;;;5.00;5.00;;;;;24.84;45.26;100071.88;5037557;28;45454;-79
2021/07/30 08:28:01;;;;;;;;;5.00;5.00;;;;;24.91;45.57;100089.25;5038164;28;45411;-79
2021/07/30 08:30:26;;;;;;;;;6.00;6.00;;;;;24.90;45.17;100090.19;5007492;28;46263;-77
2021/07/30 08:32:52;;;;;;;;;5.75;5.00;;;;;24.87;45.37;100085.06;5020662;28;50338;-79
2021/07/30 08:35:17;;;;;;;;;6.25;4.25;;;;;24.88;45.16;100100.13;5021278;28;45991;-81
2021/07/30 08:37:43;;;;;;;;;5.00;5.00;;;;;24.84;45.84;100087.88;4996557;28;45574;-76
2021/07/30 08:40:09;;;;;;;;;7.00;5.00;;;;;24.86;45.82;100093.16;5037344;28;45390;-76
2021/07/30 08:42:35;;;;;;;;;9.00;6.00;;;;;24.86;45.62;100087.81;5022190;28;45300;-76
2021/07/30 08:45:02;;;;;;;;;4.75;4.75;;;;;24.88;45.48;100093.91;5003354;28;45645;-76
2021/07/30 08:50:18;;;;;;;;;6.75;6.00;;;;;24.84;45.85;100087.03;5031444;28;47505;-76
2021/07/30 08:52:53;;;;;;;;;5.50;4.25;;;;;24.79;46.47;100077.50;5040402;28;45245;-77
2021/07/30 08:55:18;;;;;;;;;5.75;5.00;;;;;24.88;46.25;100093.91;5040765;28;45457;-75
2021/07/30 08:57:44;;;;;;;;;3.75;3.75;;;;;24.89;46.42;100074.28;5040239;28;53792;-76
2021/07/30 09:00:11;;;;;;;;;4.75;4.75;;;;;24.89;46.09;100083.16;5040518;28;55378;-76
2021/07/30 09:02:36;;;;;;;;;3.00;3.00;;;;;24.89;46.46;100079.63;5040250;28;45325;-75
2021/07/30 09:05:27;;;;;;;;;5.75;4.00;;;;;24.91;46.58;100083.03;5066380;28;45324;-76
2021/07/30 09:07:53;;;;;;;;;6.75;5.00;;;;;24.93;46.56;100075.78;5040744;28;45306;-78
2021/07/30 09:10:35;;;;;;;;;7.50;6.75;;;;;24.98;47.61;100079.91;5040079;28;45802;-76
2021/07/30 09:13:20;;;;;;;;;12.25;11.50;;;;;25.05;49.46;100085.78;5041564;28;45303;-78
2021/07/30 09:15:47;;;;;;;;;8.00;7.25;;;;;25.08;48.18;100080.25;5040795;28;45352;-77
2021/07/30 09:18:23;;;;;;;;;8.00;7.25;;;;;25.15;48.22;100078.91;5040933;28;45321;-77
2021/07/30 09:20:49;;;;;;;;;6.00;6.00;;;;;25.23;47.69;100075.78;5056535;28;45849;-78
2021/07/30 09:23:17;;;;;;;;;7.00;5.00;;;;;25.23;47.80;100081.97;5023476;28;45845;-78
2021/07/30 09:25:42;;;;;;;;;6.50;5.50;;;;;25.22;47.35;100076.72;5042874;28;45241;-77
2021/07/30 09:28:08;;;;;;;;;4.50;4.50;;;;;25.22;47.22;100074.06;5042240;28;46016;-77
2021/07/30 09:30:34;;;;;;;;;4.75;4.75;;;;;25.25;47.40;100082.72;5040264;28;46243;-77
2021/07/30 09:32:59;;;;;;;;;5.00;5.00;;;;;25.18;47.41;100086.72;5039825;28;45466;-77
2021/07/30 09:35:25;;;;;;;;;5.00;5.00;;;;;25.25;46.78;100082.72;5040227;28;45483;-77
2021/07/30 09:38:13;;;;;;;;;7.75;5.00;;;;;25.24;46.79;100083.69;5023691;28;45402;-77
2021/07/30 09:40:38;;;;;;;;;5.00;5.00;;;;;25.26;47.13;100084.44;5040206;28;48065;-77
2021/07/30 09:43:24;;;;;;;;;6.00;5.50;;;;;25.23;47.13;100081.97;5040069;28;45467;-77
2021/07/30 09:46:14;;;;;;;;;7.00;5.75;;;;;25.25;46.85;100080.06;5041403;28;45178;-77
2021/07/30 09:48:50;;;;;;;;;6.00;6.00;;;;;25.24;46.71;100083.69;5023650;28;45619;-77
2021/07/30 09:51:15;;;;;;;;;7.00;7.00;;;;;25.26;46.55;100080.91;5041054;28;45398;-77
2021/07/30 09:53:43;;;;;;;;;7.00;5.50;;;;;25.22;46.64;100082.94;5040772;28;45360;-77
2021/07/30 09:56:08;;;;;;;;;6.75;5.00;;;;;25.20;46.64;100081.31;5040115;28;45306;-77
2021/07/30 09:58:34;;;;;;;;;4.50;4.50;;;;;25.17;46.74;100073.47;5022628;28;45234;-77
2021/07/30 10:00:59;;;;;;;;;5.25;4.00;;;;;25.16;46.79;100067.28;5039748;28;46191;-77
2021/07/30 10:03:25;;;;;;;;;4.50;4.50;;;;;25.11;46.52;100068.50;5040449;28;53221;-77
2021/07/30 10:05:51;;;;;;;;;4.00;4.00;;;;;25.14;46.70;100073.69;5058655;28;45714;-77
2021/07/30 10:08:16;;;;;;;;;4.00;4.00;;;;;25.09;46.83;100066.78;5019790;28;45685;-77
2021/07/30 10:10:43;;;;;;;;;6.00;5.00;;;;;25.09;46.84;100084.63;5020360;28;61412;-77
2021/07/30 10:13:14;;;;;;;;;5.25;4.75;;;;;25.10;46.83;100067.66;5024549;28;45392;-77
2021/07/30 10:15:40;;;;;;;;;4.75;4.00;;;;;25.07;46.87;100070.50;5040908;28;45308;-77
2021/07/30 10:18:05;;;;;;;;;3.00;3.00;;;;;25.07;46.68;100059.84;5039798;28;45331;-77
2021/07/30 10:20:31;;;;;;;;;3.50;3.50;;;;;25.11;46.34;100064.06;5039302;28;49733;-77
2021/07/30 10:23:04;;;;;;;;;4.00;3.00;;;;;25.12;46.46;100065.75;5038754;28;59710;-78
2021/07/30 10:25:34;;;;;;;;;5.00;4.00;;;;;25.07;46.30;100046.47;5022624;28;45384;-77
2021/07/30 10:28:08;;;;;;;;;4.75;4.00;;;;;25.15;46.26;100059.38;5039538;28;45496;-77
2021/07/30 10:31:13;;;;;;;;;5.00;4.00;;;;;25.14;46.00;100042.50;5055848;28;45583;-77
2021/07/30 10:33:40;;;;;;;;;3.25;3.25;;;;;25.15;45.18;100049.53;5041699;28;45744;-76
2021/07/30 10:36:06;;;;;;;;;3.75;2.25;;;;;25.05;45.47;100041.25;5057989;28;45401;-77
2021/07/30 10:38:32;;;;;;;;;4.75;3.50;;;;;25.11;45.51;100063.16;5055045;28;45550;-77
2021/07/30 10:40:57;;;;;;;;;3.00;3.00;;;;;25.09;45.30;100069.47;5048863;28;45582;-75
2021/07/30 10:43:23;;;;;;;;;3.00;3.00;;;;;25.08;45.61;100053.53;5039452;28;45351;-76
2021/07/30 10:46:12;;;;;;;;;3.00;3.00;;;;;25.06;45.69;100048.28;5022553;28;45311;-77
2021/07/30 10:48:39;;;;;;;;;4.00;3.00;;;;;25.08;45.48;100072.22;5038764;28;45372;-77
2021/07/30 10:51:27;;;;;;;;;5.00;4.25;;;;;25.04;45.51;100068.91;5040460;28;45424;-77
2021/07/30 10:54:02;;;;;;;;;4.00;4.00;;;;;25.00;45.38;100061.97;5039598;28;45463;-77
2021/07/30 10:56:28;;;;;;;;;3.00;3.00;;;;;25.02;45.39;100059.22;5022286;28;45358;-77
2021/07/30 10:58:59;;;;;;;;;4.50;3.50;;;;;25.01;45.42;100061.03;5038845;28;45407;-77
2021/07/30 11:01:27;;;;;;;;;4.00;3.00;;;;;25.02;45.24;100052.13;5039249;28;45670;-77
2021/07/30 11:03:52;;;;;;;;;4.25;3.00;;;;;25.05;45.41;100064.41;5053694;28;45303;-77
2021/07/30 11:06:36;;;;;;;;;3.50;3.50;;;;;25.06;45.08;100055.44;5039082;28;45425;-77
2021/07/30 11:09:03;;;;;;;;;4.00;3.25;;;;;25.07;44.06;100049.16;5054614;28;45473;-76
2021/07/30 11:11:47;;;;;;;;;2.25;2.00;;;;;25.07;43.83;100052.69;5038804;28;47660;-77
2021/07/30 11:14:12;;;;;;;;;3.25;3.25;;;;;25.08;44.23;100054.41;5038356;28;45778;-78
2021/07/30 11:16:54;;;;;;;;;4.75;2.75;;;;;25.08;43.27;100042.84;5038409;28;45428;-76
2021/07/30 11:19:21;;;;;;;;;3.50;3.25;;;;;25.11;43.00;100053.38;5053619;28;45504;-76
2021/07/30 11:21:47;;;;;;;;;2.00;2.00;;;;;25.08;42.82;100053.53;5039372;28;45467;-80
2021/07/30 11:24:12;;;;;;;;;2.00;2.00;;;;;25.13;42.60;100058.59;5039520;28;45403;-75